Time;durP1;ratioP1;P1;durP2;ratioP2;P2;SDS_P1;SDS_P2;PMS_P1;PMS_P2;Temp;Humidity;BMP_temperature;BMP_pressure;BME280_temperature;BME280_humidity;BME280_pressure;Samples;Min_cycle;Max_cycle;Signal;HPM_P1;HPM_P2
2024/02/15 00:01:42;;;;;;;18.33;11.18;;;12.30;99.90;;;;;;5043118;28;20078;-68
2024/02/15 00:04:07;;;;;;;22.60;13.20;;;12.30;99.90;;;;;;5040326;28;20477;-70
2024/02/15 00:06:33;;;;;;;18.17;12.10;;;12.30;99.90;;;;;;5024635;28;20021;-70
2024/02/15 00:08:58;;;;;;;19.83;13.45;;;12.30;99.90;;;;;;5053220;28;20043;-71
2024/02/15 00:11:24;;;;;;;18.80;12.50;;;12.30;99.90;;;;;;5028146;28;20078;-70
2024/02/15 00:13:50;;;;;;;25.17;13.10;;;12.30;99.90;;;;;;5047661;28;20401;-72
2024/02/15 00:16:15;;;;;;;20.73;13.35;;;12.40;99.90;;;;;;5045766;28;20047;-70
2024/02/15 00:18:41;;;;;;;23.23;14.52;;;12.40;99.90;;;;;;5050130;28;20031;-70
2024/02/15 00:21:06;;;;;;;21.95;14.00;;;12.40;99.90;;;;;;5048120;28;20181;-70
2024/02/15 00:23:32;;;;;;;21.92;14.43;;;12.40;99.90;;;;;;5042444;28;20048;-71
2024/02/15 00:25:58;;;;;;;22.63;14.77;;;12.40;99.90;;;;;;5024635;28;20025;-71
2024/02/15 00:28:26;;;;;;;23.50;14.32;;;12.40;99.90;;;;;;5050217;28;20618;-69
2024/02/15 00:30:52;;;;;;;;;;;12.50;99.90;;;;;;5025923;28;20025;-70
2024/02/15 00:33:17;;;;;;;22.90;14.27;;;12.40;99.90;;;;;;5047685;28;19908;-69
2024/02/15 00:35:43;;;;;;;21.85;14.20;;;12.50;99.90;;;;;;5046369;28;20025;-69
2024/02/15 00:38:08;;;;;;;23.50;14.05;;;12.50;99.90;;;;;;5029570;28;20084;-70
2024/02/15 00:40:34;;;;;;;25.30;14.13;;;12.50;99.90;;;;;;5045362;28;20098;-70
2024/02/15 00:43:00;;;;;;;20.50;14.15;;;12.50;99.90;;;;;;5041042;28;20429;-71
2024/02/15 00:45:26;;;;;;;20.65;13.48;;;12.50;99.90;;;;;;5028294;28;20422;-70
2024/02/15 00:47:51;;;;;;;31.30;13.90;;;12.50;99.90;;;;;;5045888;28;20036;-71
2024/02/15 00:50:17;;;;;;;21.25;13.55;;;12.60;99.90;;;;;;5041697;28;20029;-70
2024/02/15 00:52:42;;;;;;;19.67;13.05;;;12.50;99.90;;;;;;5042763;28;20039;-70
2024/02/15 00:55:08;;;;;;;18.67;12.40;;;12.60;99.90;;;;;;5028965;28;20048;-71
2024/02/15 00:57:34;;;;;;;21.10;13.02;;;12.60;99.90;;;;;;5042917;28;20575;-69
2024/02/15 01:00:00;;;;;;;19.25;12.32;;;12.60;99.90;;;;;;5023025;28;20090;-69
2024/02/15 01:02:25;;;;;;;20.55;12.20;;;12.60;99.90;;;;;;5040699;28;20030;-70
2024/02/15 01:04:53;;;;;;;18.55;11.38;;;12.60;99.90;;;;;;5041112;28;20025;-70
2024/02/15 01:07:19;;;;;;;18.50;11.70;;;12.60;99.90;;;;;;5035952;28;20025;-69
2024/02/15 01:09:45;;;;;;;19.35;11.63;;;12.60;99.90;;;;;;5041159;28;20047;-71
2024/02/15 01:12:10;;;;;;;18.90;10.65;;;12.60;99.90;;;;;;5040337;28;20039;-70
2024/02/15 01:14:37;;;;;;;15.23;10.82;;;12.60;99.90;;;;;;5038172;28;20025;-69
2024/02/15 01:17:02;;;;;;;17.95;10.98;;;12.60;99.90;;;;;;5042622;28;20044;-70
2024/02/15 01:19:28;;;;;;;14.65;10.57;;;12.60;99.90;;;;;;5038470;28;20029;-70
2024/02/15 01:21:54;;;;;;;17.50;11.23;;;12.60;99.90;;;;;;5026502;28;20108;-71
2024/02/15 01:24:19;;;;;;;15.98;10.55;;;12.60;99.90;;;;;;5021910;28;20588;-70
2024/02/15 01:26:47;;;;;;;15.52;10.02;;;12.60;99.90;;;;;;5045851;28;20048;-69
2024/02/15 01:29:13;;;;;;;18.50;10.30;;;12.60;99.90;;;;;;5034266;28;20026;-70
2024/02/15 01:31:38;;;;;;;17.83;9.95;;;12.60;99.90;;;;;;5026149;28;20037;-70
2024/02/15 01:34:04;;;;;;;15.27;10.50;;;12.60;99.90;;;;;;5046325;28;20120;-70
2024/02/15 01:36:30;;;;;;;14.43;10.18;;;12.60;99.90;;;;;;5028957;28;20053;-70
2024/02/15 01:38:56;;;;;;;16.55;10.68;;;12.60;99.90;;;;;;5043383;28;20033;-70
2024/02/15 01:41:22;;;;;;;13.45;10.05;;;12.60;99.90;;;;;;5041135;28;20063;-70
2024/02/15 01:43:49;;;;;;;16.27;10.43;;;12.60;99.90;;;;;;5051200;28;20036;-70
2024/02/15 01:46:16;;;;;;;16.00;10.50;;;12.60;99.90;;;;;;5042214;28;20037;-69
2024/02/15 01:48:43;;;;;;;14.50;10.13;;;12.60;99.90;;;;;;5049305;28;20037;-70
2024/02/15 01:51:11;;;;;;;13.32;9.15;;;12.60;99.90;;;;;;5027190;28;20025;-69
2024/02/15 01:53:37;;;;;;;;;;;12.60;99.90;;;;;;5049316;28;20032;-71
2024/02/15 01:56:03;;;;;;;17.63;10.38;;;12.60;99.90;;;;;;5046285;28;19912;-69
2024/02/15 01:58:32;;;;;;;15.10;9.75;;;12.60;99.90;;;;;;5047126;28;20119;-70
2024/02/15 02:00:58;;;;;;;15.98;9.88;;;12.60;99.90;;;;;;5044916;28;20649;-69
2024/02/15 02:03:24;;;;;;;15.38;9.50;;;12.60;99.90;;;;;;5040932;28;20132;-70
2024/02/15 02:05:49;;;;;;;14.27;9.82;;;12.60;99.90;;;;;;5045145;28;20544;-71
2024/02/15 02:08:15;;;;;;;15.35;9.20;;;12.60;99.90;;;;;;5044351;28;20032;-70
2024/02/15 02:10:41;;;;;;;12.18;8.43;;;12.60;99.90;;;;;;5044220;28;20029;-72
2024/02/15 02:13:06;;;;;;;12.55;9.13;;;12.60;99.90;;;;;;5026888;28;20025;-70
2024/02/15 02:15:32;;;;;;;20.17;8.73;;;12.60;99.90;;;;;;5039575;28;20493;-70
2024/02/15 02:18:01;;;;;;;12.48;8.40;;;12.60;99.90;;;;;;5044177;28;20033;-70
2024/02/15 02:20:27;;;;;;;10.27;8.02;;;12.60;99.90;;;;;;5038325;28;20043;-69
2024/02/15 02:23:13;;;;;;;14.02;8.32;;;12.60;99.90;;;;;;5046425;28;20021;-70
2024/02/15 02:25:38;;;;;;;10.90;7.28;;;12.60;99.90;;;;;;5042649;28;20477;-69
2024/02/15 02:28:06;;;;;;;11.70;7.45;;;12.60;99.90;;;;;;5043863;28;20059;-70
2024/02/15 02:30:32;;;;;;;12.77;7.78;;;12.60;99.90;;;;;;5044115;28;20028;-70
2024/02/15 02:32:58;;;;;;;10.45;6.95;;;12.60;99.90;;;;;;5042334;28;20032;-71
2024/02/15 02:35:25;;;;;;;10.25;6.72;;;12.60;99.90;;;;;;5027072;28;20025;-71
2024/02/15 02:37:52;;;;;;;9.98;6.47;;;12.60;99.90;;;;;;5046259;28;20037;-70
2024/02/15 02:40:19;;;;;;;8.82;6.07;;;12.60;99.90;;;;;;5027565;28;20032;-70
2024/02/15 02:42:53;;;;;;;9.70;6.15;;;12.60;99.90;;;;;;5044718;28;20032;-70
2024/02/15 02:45:19;;;;;;;9.10;6.07;;;12.60;99.90;;;;;;5042898;28;20035;-70
2024/02/15 02:47:46;;;;;;;7.53;5.32;;;12.60;99.90;;;;;;5040119;28;20060;-70
2024/02/15 02:50:13;;;;;;;7.28;5.55;;;12.60;99.90;;;;;;5028185;28;20082;-70
2024/02/15 02:52:39;;;;;;;7.70;5.40;;;12.60;99.90;;;;;;5039008;28;20029;-71
2024/02/15 02:55:08;;;;;;;9.88;6.32;;;12.60;99.90;;;;;;5045670;28;20044;-71
2024/02/15 02:57:35;;;;;;;8.82;5.28;;;12.60;99.90;;;;;;5026114;28;20047;-70
2024/02/15 03:00:07;;;;;;;7.78;5.65;;;12.60;99.90;;;;;;5043927;28;20028;-70
2024/02/15 03:02:36;;;;;;;7.75;5.38;;;12.60;99.90;;;;;;5046248;28;20032;-69
2024/02/15 03:05:06;;;;;;;8.15;5.88;;;12.60;99.90;;;;;;5046835;28;20044;-71
2024/02/15 03:07:40;;;;;;;8.55;5.43;;;12.60;99.90;;;;;;5029214;28;20017;-70
2024/02/15 03:10:08;;;;;;;11.00;5.70;;;12.60;99.90;;;;;;5044163;28;20563;-71
2024/02/15 03:12:37;;;;;;;8.55;5.55;;;12.60;99.90;;;;;;4996883;28;1424959;-69
2024/02/15 03:15:04;;;;;;;8.35;5.38;;;12.60;99.90;;;;;;5045079;28;20043;-70
2024/02/15 03:17:31;;;;;;;8.05;5.97;;;12.60;99.90;;;;;;5046747;28;20033;-70
2024/02/15 03:19:57;;;;;;;7.40;5.73;;;12.60;99.90;;;;;;5048692;28;20024;-71
2024/02/15 03:22:25;;;;;;;8.80;5.90;;;12.60;99.90;;;;;;5045412;28;20025;-69
2024/02/15 03:24:50;;;;;;;10.75;6.38;;;12.70;99.90;;;;;;5049411;28;20020;-70
2024/02/15 03:27:16;;;;;;;9.23;6.47;;;12.60;99.90;;;;;;5046713;28;20051;-70
2024/02/15 03:29:42;;;;;;;10.25;5.88;;;12.60;99.90;;;;;;5049173;28;20108;-71
2024/02/15 03:32:10;;;;;;;12.68;6.03;;;12.60;99.90;;;;;;5047224;28;20696;-70
2024/02/15 03:34:36;;;;;;;;;;;12.70;99.90;;;;;;5047784;28;20051;-70
2024/02/15 03:37:03;;;;;;;11.70;6.00;;;12.70;99.90;;;;;;5031406;28;20361;-69
2024/02/15 03:39:29;;;;;;;8.52;5.60;;;12.70;99.90;;;;;;5047744;28;20114;-72
2024/02/15 03:41:56;;;;;;;6.70;5.15;;;12.60;99.90;;;;;;5048218;28;20584;-71
2024/02/15 03:44:25;;;;;;;8.18;5.70;;;12.70;99.90;;;;;;5047875;28;20497;-70
2024/02/15 03:46:51;;;;;;;9.82;5.90;;;12.70;99.90;;;;;;5044824;28;20025;-69
2024/02/15 03:49:18;;;;;;;9.35;6.15;;;12.70;99.90;;;;;;5028198;28;20083;-68
2024/02/15 03:51:44;;;;;;;13.75;6.07;;;12.70;99.90;;;;;;5046191;28;20369;-70
2024/02/15 03:54:13;;;;;;;9.85;6.13;;;12.80;99.90;;;;;;5041668;28;20041;-69
2024/02/15 03:56:57;;;;;;;9.77;6.10;;;12.70;99.90;;;;;;5026571;28;20064;-71
2024/02/15 03:59:26;;;;;;;11.75;6.47;;;12.70;99.90;;;;;;5025637;28;20025;-70
2024/02/15 04:01:56;;;;;;;9.98;6.13;;;12.70;99.90;;;;;;5042135;28;20039;-70
2024/02/15 04:04:22;;;;;;;10.30;6.22;;;12.70;99.90;;;;;;5047417;28;20021;-70
2024/02/15 04:06:48;;;;;;;9.77;5.80;;;12.70;99.90;;;;;;5041456;28;20100;-71
2024/02/15 04:09:14;;;;;;;10.38;5.65;;;12.70;99.90;;;;;;5039883;28;20021;-70
2024/02/15 04:11:40;;;;;;;7.75;6.00;;;12.70;99.90;;;;;;5046980;28;20032;-70
2024/02/15 04:14:05;;;;;;;9.10;6.20;;;12.70;99.90;;;;;;5041657;28;20485;-70
2024/02/15 04:16:33;;;;;;;9.13;5.93;;;12.70;99.90;;;;;;5044758;28;20126;-69
2024/02/15 04:18:59;;;;;;;8.82;6.47;;;12.70;99.90;;;;;;5040480;28;20440;-71
2024/02/15 04:21:26;;;;;;;9.52;6.20;;;12.70;99.90;;;;;;5040395;28;20123;-71
2024/02/15 04:23:52;;;;;;;7.25;5.50;;;12.70;99.90;;;;;;5045212;28;20049;-69
2024/02/15 04:26:19;;;;;;;9.65;6.00;;;12.70;99.90;;;;;;5049264;28;20078;-71
2024/02/15 04:28:48;;;;;;;7.82;5.90;;;12.70;99.90;;;;;;5044105;28;20033;-69
2024/02/15 04:31:15;;;;;;;8.65;6.30;;;12.70;99.90;;;;;;5044243;28;20047;-70
2024/02/15 04:33:41;;;;;;;8.45;5.68;;;12.70;99.90;;;;;;5044602;28;20017;-70
2024/02/15 04:36:06;;;;;;;11.23;5.60;;;12.80;99.90;;;;;;5048823;28;20024;-70
2024/02/15 04:38:35;;;;;;;6.93;5.07;;;12.70;99.90;;;;;;5049819;28;20029;-71
2024/02/15 04:41:02;;;;;;;10.10;5.65;;;12.80;99.90;;;;;;5051817;28;20029;-71
2024/02/15 04:43:29;;;;;;;7.80;5.30;;;12.70;99.90;;;;;;5048195;28;20028;-72
2024/02/15 04:45:54;;;;;;;8.35;5.38;;;12.70;99.90;;;;;;5043987;28;20496;-71
2024/02/15 04:48:20;;;;;;;9.45;6.03;;;12.80;99.90;;;;;;5047201;28;20032;-70
2024/02/15 04:50:45;;;;;;;7.90;5.50;;;12.70;99.90;;;;;;5044402;28;20052;-69
2024/02/15 04:53:11;;;;;;;8.95;6.05;;;12.70;99.90;;;;;;5026079;28;20486;-74
2024/02/15 04:55:37;;;;;;;8.40;6.03;;;12.80;99.90;;;;;;5045853;28;20040;-70
2024/02/15 04:58:04;;;;;;;8.65;5.28;;;12.80;99.90;;;;;;5045430;28;20041;-70
2024/02/15 05:00:30;;;;;;;7.93;5.43;;;12.80;99.90;;;;;;5044126;28;20021;-71
2024/02/15 05:02:55;;;;;;;9.70;5.10;;;12.80;99.90;;;;;;5040914;28;20041;-70
2024/02/15 05:05:21;;;;;;;7.95;5.18;;;12.80;99.90;;;;;;5042436;28;20033;-70
2024/02/15 05:07:49;;;;;;;8.35;5.20;;;12.80;99.90;;;;;;5047481;28;20027;-69
2024/02/15 05:10:16;;;;;;;7.20;5.45;;;12.80;99.90;;;;;;5053977;28;20029;-69
2024/02/15 05:12:42;;;;;;;7.28;5.30;;;12.80;99.90;;;;;;5048555;28;20044;-70
2024/02/15 05:15:12;;;;;;;8.70;5.43;;;12.80;99.90;;;;;;5028871;28;20139;-69
2024/02/15 05:17:42;;;;;;;7.80;5.70;;;12.80;99.90;;;;;;5052302;28;20017;-69
2024/02/15 05:20:12;;;;;;;7.38;5.13;;;12.80;99.90;;;;;;5043572;28;20029;-71
2024/02/15 05:22:39;;;;;;;8.13;5.43;;;12.80;99.90;;;;;;5042424;28;20017;-69
2024/02/15 05:25:07;;;;;;;7.22;5.22;;;12.80;99.90;;;;;;5027307;28;20025;-70
2024/02/15 05:27:33;;;;;;;7.43;4.93;;;12.80;99.90;;;;;;5044226;28;20029;-69
2024/02/15 05:29:59;;;;;;;8.00;5.30;;;12.80;99.90;;;;;;5026956;28;20040;-71
2024/02/15 05:32:26;;;;;;;7.43;5.38;;;12.80;99.90;;;;;;5048745;28;20048;-69
2024/02/15 05:34:54;;;;;;;7.90;5.43;;;12.70;99.90;;;;;;5039713;28;20029;-69
2024/02/15 05:37:20;;;;;;;8.40;6.15;;;12.80;99.90;;;;;;5027539;28;20216;-70
2024/02/15 05:39:46;;;;;;;7.88;5.03;;;12.80;99.90;;;;;;5050743;28;20563;-70
2024/02/15 05:42:11;;;;;;;13.63;6.75;;;12.80;99.90;;;;;;5045390;28;20044;-71
2024/02/15 05:44:37;;;;;;;9.70;5.57;;;12.80;99.90;;;;;;5029066;28;20202;-68
2024/02/15 05:47:04;;;;;;;8.95;5.93;;;12.80;99.90;;;;;;5041647;28;20030;-69
2024/02/15 05:49:29;;;;;;;9.45;6.53;;;12.80;99.90;;;;;;5027386;28;20486;-69
2024/02/15 05:51:55;;;;;;;7.28;5.43;;;12.80;99.90;;;;;;5045664;28;20083;-69
2024/02/15 05:54:22;;;;;;;9.23;6.35;;;12.80;99.90;;;;;;5040125;28;20100;-70
2024/02/15 05:56:51;;;;;;;10.07;6.80;;;12.80;99.90;;;;;;5045341;28;20029;-70
2024/02/15 05:59:20;;;;;;;11.18;6.78;;;12.80;99.90;;;;;;5040271;28;20449;-70
2024/02/15 06:01:48;;;;;;;9.70;5.93;;;12.80;99.90;;;;;;5026332;28;21035;-71
2024/02/15 06:04:14;;;;;;;;;;;12.80;99.90;;;;;;5039848;28;20056;-71
2024/02/15 06:06:39;;;;;;;10.55;6.03;;;12.80;99.90;;;;;;5045970;28;19944;-72
2024/02/15 06:09:05;;;;;;;8.75;6.15;;;12.90;99.90;;;;;;5041255;28;20118;-70
2024/02/15 06:11:31;;;;;;;9.30;6.25;;;12.80;99.90;;;;;;5037699;28;20024;-73
2024/02/15 06:13:57;;;;;;;9.45;6.90;;;12.80;99.90;;;;;;5037743;28;20021;-69
2024/02/15 06:16:23;;;;;;;9.27;6.60;;;12.90;99.90;;;;;;5039355;28;20025;-71
2024/02/15 06:18:49;;;;;;;9.88;6.60;;;12.80;99.90;;;;;;5042372;28;20059;-70
2024/02/15 06:21:14;;;;;;;13.35;7.30;;;12.80;99.90;;;;;;5043378;28;20026;-69
2024/02/15 06:23:40;;;;;;;11.10;7.00;;;12.80;99.90;;;;;;5037428;28;20033;-70
2024/02/15 06:26:06;;;;;;;12.13;7.22;;;12.80;99.90;;;;;;5031347;28;20032;-72
2024/02/15 06:39:41;;;;;;;11.43;6.93;;;12.80;99.90;;;;;;5034186;28;20492;-70
2024/02/15 06:42:11;;;;;;;13.93;7.82;;;12.80;99.90;;;;;;5038143;28;20081;-70
2024/02/15 06:44:40;;;;;;;17.27;7.90;;;12.80;99.90;;;;;;5035162;28;20037;-70
2024/02/15 06:47:06;;;;;;;11.52;7.07;;;12.80;99.90;;;;;;5022484;28;20038;-70
2024/02/15 06:49:33;;;;;;;11.73;7.55;;;12.80;99.90;;;;;;5041937;28;20040;-70
2024/02/15 06:52:01;;;;;;;15.07;8.50;;;12.90;99.90;;;;;;5037252;28;20051;-71
2024/02/15 06:54:27;;;;;;;16.60;8.68;;;12.90;99.90;;;;;;5027663;28;20055;-70
2024/02/15 06:56:54;;;;;;;14.48;8.98;;;12.90;99.90;;;;;;5038737;28;20037;-70
2024/02/15 06:59:22;;;;;;;28.48;9.65;;;12.90;99.90;;;;;;5036777;28;20072;-71
2024/02/15 07:01:49;;;;;;;15.52;9.18;;;12.90;99.90;;;;;;5043736;28;20025;-71
2024/02/15 07:04:14;;;;;;;17.92;9.70;;;12.90;99.90;;;;;;5038021;28;20131;-69
2024/02/15 07:06:40;;;;;;;19.73;9.75;;;12.90;99.90;;;;;;5038297;28;20094;-70
2024/02/15 07:09:06;;;;;;;18.77;9.50;;;12.90;99.90;;;;;;5040707;28;20025;-71
2024/02/15 07:11:35;;;;;;;16.77;10.43;;;12.90;99.90;;;;;;5042099;28;20035;-71
2024/02/15 07:14:01;;;;;;;18.40;8.68;;;12.90;99.90;;;;;;5044945;28;20025;-70
2024/02/15 07:16:27;;;;;;;17.20;9.40;;;12.90;99.90;;;;;;5041484;28;20025;-70
2024/02/15 07:18:52;;;;;;;16.17;10.38;;;12.90;99.90;;;;;;5038550;28;20029;-71
2024/02/15 07:21:25;;;;;;;21.17;9.85;;;12.90;99.90;;;;;;5040982;28;20029;-70
2024/02/15 07:23:51;;;;;;;20.98;10.50;;;12.90;99.90;;;;;;5039690;28;20171;-69
2024/02/15 07:26:20;;;;;;;20.45;10.55;;;12.90;99.90;;;;;;5035643;28;20565;-69
2024/02/15 07:28:46;;;;;;;21.77;11.52;;;12.90;99.90;;;;;;5038624;28;20450;-70
2024/02/15 07:31:12;;;;;;;20.20;11.68;;;12.90;99.90;;;;;;5023703;28;20055;-70
2024/02/15 07:33:38;;;;;;;24.92;12.23;;;12.90;99.90;;;;;;5037532;28;20477;-69
2024/02/15 07:36:04;;;;;;;31.05;13.45;;;12.90;99.90;;;;;;5038794;28;20051;-69
2024/02/15 07:38:34;;;;;;;28.83;13.18;;;12.90;99.90;;;;;;5037891;28;20037;-71
2024/02/15 07:41:00;;;;;;;22.25;12.95;;;12.90;99.90;;;;;;5022225;28;20025;-70
2024/02/15 07:43:26;;;;;;;20.27;12.40;;;12.90;99.90;;;;;;5040494;28;20086;-70
2024/02/15 07:45:52;;;;;;;26.13;12.85;;;13.00;99.90;;;;;;5035448;28;20089;-72
2024/02/15 07:48:17;;;;;;;26.13;13.30;;;12.90;99.90;;;;;;5042968;28;20025;-70
2024/02/15 07:50:44;;;;;;;34.78;14.27;;;12.90;99.90;;;;;;5041255;28;20029;-70
2024/02/15 07:53:11;;;;;;;28.75;13.82;;;12.90;99.90;;;;;;5042880;28;20116;-70
2024/02/15 07:55:37;;;;;;;26.13;13.18;;;12.90;99.90;;;;;;5030044;28;20031;-70
2024/02/15 07:58:04;;;;;;;24.38;12.43;;;12.90;99.90;;;;;;5040148;28;20031;-70
2024/02/15 08:00:30;;;;;;;23.73;12.93;;;13.00;99.90;;;;;;5039735;28;20025;-70
2024/02/15 08:02:57;;;;;;;25.02;13.00;;;13.00;99.90;;;;;;5046833;28;20392;-69
2024/02/15 08:05:23;;;;;;;25.05;12.48;;;13.00;99.90;;;;;;5044838;28;20031;-70
2024/02/15 08:07:49;;;;;;;27.15;11.32;;;13.00;99.90;;;;;;5047488;28;20029;-69
2024/02/15 08:10:15;;;;;;;28.85;12.60;;;13.00;99.90;;;;;;5043756;28;20040;-70
2024/02/15 08:12:45;;;;;;;21.67;11.82;;;13.00;99.90;;;;;;5040516;28;20033;-70
2024/02/15 08:15:11;;;;;;;21.48;10.75;;;13.00;99.90;;;;;;5045888;28;20037;-70
2024/02/15 08:17:46;;;;;;;22.02;10.07;;;13.10;99.90;;;;;;5043229;28;20107;-70
2024/02/15 08:20:13;;;;;;;16.98;9.38;;;13.10;99.90;;;;;;5039602;28;20036;-69
2024/02/15 08:22:39;;;;;;;16.05;8.43;;;13.10;99.90;;;;;;5021191;28;20024;-70
2024/02/15 08:25:12;;;;;;;12.90;7.40;;;13.10;99.90;;;;;;5044390;28;20029;-70
2024/02/15 08:27:45;;;;;;;13.40;7.65;;;13.10;99.90;;;;;;5040983;28;20052;-70
2024/02/15 08:30:12;;;;;;;17.15;6.45;;;13.10;99.90;;;;;;5042554;28;20029;-69
2024/02/15 08:32:39;;;;;;;11.88;5.97;;;13.10;99.90;;;;;;5042512;28;20032;-70
2024/02/15 08:35:06;;;;;;;14.80;6.07;;;13.10;99.90;;;;;;5041578;28;20491;-68
2024/02/15 08:37:34;;;;;;;14.47;5.30;;;13.10;99.90;;;;;;5041818;28;20036;-70
2024/02/15 08:40:01;;;;;;;13.25;5.75;;;13.10;99.90;;;;;;5023146;28;20048;-70
2024/02/15 08:42:27;;;;;;;12.35;5.45;;;13.20;99.90;;;;;;5039989;28;20032;-70
2024/02/15 08:44:52;;;;;;;13.52;4.78;;;13.20;99.90;;;;;;5038599;28;20363;-70
2024/02/15 08:47:18;;;;;;;10.93;4.45;;;13.20;99.90;;;;;;5037573;28;20116;-70
2024/02/15 08:49:43;;;;;;;15.50;5.00;;;13.20;99.90;;;;;;5041735;28;20033;-69
2024/02/15 08:52:09;;;;;;;12.57;4.20;;;13.30;99.90;;;;;;5023251;28;20040;-70
2024/02/15 08:54:38;;;;;;;9.15;3.55;;;13.30;99.90;;;;;;5038037;28;20116;-70
2024/02/15 08:57:05;;;;;;;10.05;4.18;;;13.30;99.90;;;;;;5040614;28;20383;-69
2024/02/15 08:59:30;;;;;;;12.82;3.67;;;13.40;99.90;;;;;;5055185;28;20598;-71
2024/02/15 09:01:56;;;;;;;8.20;4.13;;;13.40;99.90;;;;;;5041383;28;20033;-69
2024/02/15 09:04:24;;;;;;;7.00;4.05;;;13.40;99.90;;;;;;5043285;28;20025;-70
2024/02/15 09:06:50;;;;;;;8.27;3.40;;;13.50;99.90;;;;;;5027016;28;20119;-68
2024/02/15 09:09:16;;;;;;;5.20;3.38;;;13.50;99.90;;;;;;5026061;28;20056;-70
2024/02/15 09:11:42;;;;;;;7.88;3.50;;;13.50;99.90;;;;;;5041945;28;20033;-70
2024/02/15 09:14:09;;;;;;;12.45;3.65;;;13.50;99.90;;;;;;5047640;28;20099;-70
2024/02/15 09:16:36;;;;;;;7.00;3.13;;;13.60;99.90;;;;;;5045824;28;20041;-71
2024/02/15 09:19:01;;;;;;;8.98;3.22;;;13.60;99.90;;;;;;5038583;28;20037;-72
2024/02/15 09:21:30;;;;;;;6.03;3.00;;;13.60;99.90;;;;;;5040610;28;20021;-71
2024/02/15 09:23:56;;;;;;;7.35;2.90;;;13.60;99.90;;;;;;5039298;28;20132;-70
2024/02/15 09:26:22;;;;;;;11.10;2.50;;;13.60;99.90;;;;;;5039793;28;20104;-71
2024/02/15 09:28:47;;;;;;;7.82;3.15;;;13.60;99.90;;;;;;5041732;28;20036;-69
2024/02/15 09:31:16;;;;;;;6.65;2.70;;;13.60;99.90;;;;;;5042724;28;20881;-70
2024/02/15 09:33:42;;;;;;;4.60;2.53;;;13.60;99.90;;;;;;5024419;28;20041;-71
2024/02/15 09:36:07;;;;;;;7.28;2.67;;;13.70;99.90;;;;;;5037697;28;20092;-70
2024/02/15 09:38:33;;;;;;;6.43;2.33;;;13.80;99.90;;;;;;5040551;28;20039;-69
2024/02/15 09:40:59;;;;;;;8.07;2.55;;;13.80;99.90;;;;;;5039628;28;20032;-71
2024/02/15 09:43:26;;;;;;;4.30;1.92;;;13.80;99.90;;;;;;5039454;28;20029;-70
2024/02/15 09:45:54;;;;;;;4.63;1.63;;;13.90;99.90;;;;;;5043381;28;20063;-70
2024/02/15 09:48:24;;;;;;;8.02;2.20;;;13.90;99.90;;;;;;5024050;28;20021;-72
2024/02/15 09:50:53;;;;;;;5.68;1.95;;;13.90;99.90;;;;;;5042159;28;20030;-70
2024/02/15 09:53:21;;;;;;;8.43;1.95;;;13.90;99.90;;;;;;5033953;28;20068;-70
2024/02/15 09:55:48;;;;;;;2.72;1.67;;;13.90;99.90;;;;;;5043967;28;20029;-69
2024/02/15 09:58:15;;;;;;;4.28;1.83;;;13.90;99.90;;;;;;5021015;28;20030;-70
2024/02/15 10:00:40;;;;;;;4.07;2.00;;;13.90;99.90;;;;;;5038368;28;20021;-71
2024/02/15 10:03:09;;;;;;;7.10;1.67;;;13.80;99.90;;;;;;5040363;28;20039;-69
2024/02/15 10:05:35;;;;;;;2.17;1.40;;;13.90;99.90;;;;;;5025466;28;20033;-69
2024/02/15 10:08:02;;;;;;;5.93;1.98;;;13.80;99.90;;;;;;5041999;28;20023;-69
2024/02/15 10:10:28;;;;;;;9.63;1.67;;;13.80;99.90;;;;;;5043129;28;20050;-69
2024/02/15 10:12:54;;;;;;;3.95;1.67;;;13.80;99.90;;;;;;5041074;28;20091;-69
2024/02/15 10:15:36;;;;;;;5.30;1.90;;;13.80;99.90;;;;;;5036452;28;20265;-69
2024/02/15 10:18:12;;;;;;;3.45;1.42;;;13.80;99.90;;;;;;5041033;28;20115;-69
2024/02/15 10:20:39;;;;;;;2.65;1.88;;;13.80;99.90;;;;;;5029008;28;20060;-69
2024/02/15 10:23:08;;;;;;;3.80;1.50;;;13.90;99.90;;;;;;5039819;28;20025;-70
2024/02/15 10:25:34;;;;;;;4.30;1.58;;;13.80;99.90;;;;;;5025698;28;20021;-68
2024/02/15 10:28:06;;;;;;;3.08;1.75;;;13.80;99.90;;;;;;5035489;28;20086;-72
2024/02/15 10:30:34;;;;;;;5.03;1.73;;;13.80;99.90;;;;;;5038929;28;20048;-69
2024/02/15 10:33:01;;;;;;;5.57;2.17;;;13.80;99.90;;;;;;5021714;28;20039;-70
2024/02/15 10:35:27;;;;;;;3.35;1.73;;;13.70;99.90;;;;;;5027258;28;20033;-70
2024/02/15 10:38:15;;;;;;;7.68;2.42;;;13.70;99.90;;;;;;5036187;28;20110;-70
2024/02/15 10:40:42;;;;;;;1.85;1.30;;;13.80;99.90;;;;;;5042309;28;20025;-69
2024/02/15 10:43:10;;;;;;;5.10;1.88;;;13.80;99.90;;;;;;5047364;28;20528;-69
2024/02/15 10:45:37;;;;;;;;;;;13.70;99.90;;;;;;5026164;28;20136;-70
2024/02/15 10:48:05;;;;;;;7.78;2.15;;;13.70;99.90;;;;;;5049451;28;19935;-70
2024/02/15 10:50:31;;;;;;;4.88;2.13;;;13.70;99.90;;;;;;5025678;28;20493;-70
2024/02/15 10:52:59;;;;;;;6.07;1.98;;;13.60;99.90;;;;;;5037426;28;20029;-68
2024/02/15 10:55:52;;;;;;;7.90;2.05;;;13.60;99.90;;;;;;5032718;28;20037;-70
2024/02/15 10:58:23;;;;;;;3.80;1.73;;;13.70;99.90;;;;;;5042311;28;20032;-69
2024/02/15 11:00:50;;;;;;;11.32;2.20;;;13.60;99.90;;;;;;5036489;28;20026;-70
2024/02/15 11:03:25;;;;;;;4.63;1.93;;;13.60;99.90;;;;;;5037500;28;20172;-69
2024/02/15 11:05:52;;;;;;;2.15;1.63;;;13.60;99.90;;;;;;5045232;28;20351;-70
2024/02/15 11:08:18;;;;;;;2.93;1.60;;;13.60;99.90;;;;;;5042665;28;20021;-70
2024/02/15 11:10:44;;;;;;;6.22;2.15;;;13.60;99.90;;;;;;5043376;28;20025;-69
2024/02/15 11:13:10;;;;;;;3.63;1.92;;;13.60;99.90;;;;;;5047175;28;20033;-71
2024/02/15 11:15:39;;;;;;;9.05;2.25;;;13.50;99.90;;;;;;5037993;28;20088;-70
2024/02/15 11:18:05;;;;;;;4.57;2.22;;;13.60;99.90;;;;;;5037347;28;20037;-70
2024/02/15 11:20:34;;;;;;;4.75;2.00;;;13.60;99.90;;;;;;5039385;28;20032;-70
2024/02/15 11:23:01;;;;;;;8.43;2.95;;;13.60;99.90;;;;;;5042321;28;20036;-70
2024/02/15 11:25:38;;;;;;;3.80;2.10;;;13.60;99.90;;;;;;5040954;28;20087;-70
2024/02/15 11:28:22;;;;;;;7.63;2.90;;;13.60;99.90;;;;;;5044063;28;20496;-70
2024/02/15 11:30:51;;;;;;;6.40;2.22;;;13.60;99.90;;;;;;5039931;28;20667;-71
2024/02/15 11:33:30;;;;;;;5.30;2.42;;;13.60;99.90;;;;;;5022759;28;20029;-73
2024/02/15 11:36:08;;;;;;;3.58;1.98;;;13.60;99.90;;;;;;5047473;28;20020;-70
2024/02/15 11:38:40;;;;;;;3.83;1.77;;;13.60;99.90;;;;;;5044498;28;20083;-69
2024/02/15 11:41:08;;;;;;;5.38;2.05;;;13.60;99.90;;;;;;5045789;28;20087;-69
2024/02/15 11:43:49;;;;;;;5.25;2.28;;;13.70;99.90;;;;;;5049187;28;20041;-70
2024/02/15 11:46:19;;;;;;;5.38;1.90;;;13.70;99.90;;;;;;5042963;28;20154;-70
2024/02/15 11:48:48;;;;;;;6.47;2.10;;;13.70;99.90;;;;;;5043770;28;20112;-71
2024/02/15 11:51:42;;;;;;;5.00;2.10;;;13.70;99.90;;;;;;5038706;28;20025;-70
2024/02/15 11:54:12;;;;;;;9.60;2.70;;;13.70;99.90;;;;;;5048584;28;20033;-70
2024/02/15 11:56:47;;;;;;;7.53;2.10;;;13.70;99.90;;;;;;5032986;28;20024;-71
2024/02/15 11:59:18;;;;;;;5.80;2.08;;;13.80;99.90;;;;;;5041856;28;20685;-70
2024/02/15 12:21:05;;;;;;;2.80;1.83;;;13.80;99.90;;;;;;5043625;28;20043;-72
2024/02/15 12:23:33;;;;;;;7.90;2.30;;;13.90;99.90;;;;;;5042513;28;20405;-70
2024/02/15 12:26:00;;;;;;;3.78;2.25;;;13.90;99.90;;;;;;5045131;28;20025;-70
2024/02/15 12:28:25;;;;;;;4.32;1.80;;;13.90;99.90;;;;;;5039770;28;20033;-71
2024/02/15 12:30:57;;;;;;;5.57;1.98;;;13.80;99.90;;;;;;5040712;28;20393;-69
2024/02/15 12:33:23;;;;;;;5.07;1.73;;;13.80;99.90;;;;;;5044817;28;20451;-71
2024/02/15 12:35:52;;;;;;;2.92;1.60;;;13.90;99.90;;;;;;5043443;28;20679;-71
2024/02/15 12:38:18;;;;;;;6.40;1.65;;;14.00;99.90;;;;;;5039237;28;20690;-70
2024/02/15 12:40:44;;;;;;;1.50;1.20;;;13.90;99.90;;;;;;5045619;28;20119;-70
2024/02/15 12:43:11;;;;;;;2.55;1.33;;;13.90;99.90;;;;;;5041476;28;20067;-72
2024/02/15 12:45:40;;;;;;;9.07;1.85;;;13.90;99.90;;;;;;5025693;28;20032;-70
2024/02/15 12:48:08;;;;;;;9.10;2.00;;;13.90;99.90;;;;;;5043429;28;20032;-70
2024/02/15 12:50:34;;;;;;;3.65;1.80;;;13.90;99.90;;;;;;5038997;28;20029;-71
2024/02/15 12:53:03;;;;;;;2.60;1.25;;;13.90;99.90;;;;;;5046217;28;20504;-70
2024/02/15 12:55:36;;;;;;;5.50;1.48;;;14.00;99.90;;;;;;5042000;28;20107;-70
2024/02/15 12:58:08;;;;;;;2.60;1.30;;;14.00;99.90;;;;;;5024754;28;20086;-70
2024/02/15 13:00:36;;;;;;;3.85;1.60;;;14.00;99.90;;;;;;5041014;28;20025;-70
2024/02/15 13:03:03;;;;;;;;;;;14.00;99.90;;;;;;5026873;28;20471;-70
2024/02/15 13:05:30;;;;;;;4.45;1.20;;;14.00;99.90;;;;;;5037224;28;20047;-71
2024/02/15 13:08:02;;;;;;;2.70;1.47;;;14.00;99.90;;;;;;5041714;28;20033;-70
2024/02/15 13:10:29;;;;;;;1.88;1.25;;;14.00;99.90;;;;;;5040389;28;20035;-70
2024/02/15 13:12:55;;;;;;;6.15;1.70;;;14.00;99.90;;;;;;5035817;28;20541;-70